sensor_id;sensor_type;location;lat;lon;timestamp;P1;durP1;ratioP1;P2;durP2;ratioP2
22715;SDS011;11525;51.152;4.456;2024-03-23T00:55:57;28.27;;;12.77;;
22715;SDS011;11525;51.152;4.456;2024-03-23T00:58:22;26.90;;;13.07;;
22715;SDS011;11525;51.152;4.456;2024-03-23T01:00:48;31.73;;;13.75;;
22715;SDS011;11525;51.152;4.456;2024-03-23T01:03:13;31.08;;;14.38;;
22715;SDS011;11525;51.152;4.456;2024-03-23T01:05:39;30.05;;;15.32;;
22715;SDS011;11525;51.152;4.456;2024-03-23T01:08:05;29.08;;;14.25;;
22715;SDS011;11525;51.152;4.456;2024-03-23T01:10:31;32.72;;;13.45;;
22715;SDS011;11525;51.152;4.456;2024-03-23T01:12:56;28.77;;;13.57;;
22715;SDS011;11525;51.152;4.456;2024-03-23T01:15:22;27.40;;;12.80;;
22715;SDS011;11525;51.152;4.456;2024-03-23T01:17:47;33.30;;;12.75;;
22715;SDS011;11525;51.152;4.456;2024-03-23T01:20:13;33.33;;;12.95;;
22715;SDS011;11525;51.152;4.456;2024-03-23T01:22:39;34.58;;;14.00;;
22715;SDS011;11525;51.152;4.456;2024-03-23T01:25:04;33.80;;;13.93;;
22715;SDS011;11525;51.152;4.456;2024-03-23T01:27:30;29.08;;;12.25;;
22715;SDS011;11525;51.152;4.456;2024-03-23T01:29:56;38.45;;;14.57;;
22715;SDS011;11525;51.152;4.456;2024-03-23T01:32:21;37.70;;;14.23;;
22715;SDS011;11525;51.152;4.456;2024-03-23T01:34:47;33.00;;;13.02;;
22715;SDS011;11525;51.152;4.456;2024-03-23T01:37:12;24.02;;;12.10;;
22715;SDS011;11525;51.152;4.456;2024-03-23T01:39:38;30.65;;;12.95;;
22715;SDS011;11525;51.152;4.456;2024-03-23T01:42:04;26.25;;;12.43;;
22715;SDS011;11525;51.152;4.456;2024-03-23T01:44:29;24.35;;;11.50;;
22715;SDS011;11525;51.152;4.456;2024-03-23T01:46:55;28.90;;;10.70;;
22715;SDS011;11525;51.152;4.456;2024-03-23T01:49:21;23.30;;;10.45;;
22715;SDS011;11525;51.152;4.456;2024-03-23T01:51:46;24.65;;;8.40;;
22715;SDS011;11525;51.152;4.456;2024-03-23T01:54:12;29.05;;;10.15;;
22715;SDS011;11525;51.152;4.456;2024-03-23T01:56:38;27.48;;;11.88;;
22715;SDS011;11525;51.152;4.456;2024-03-23T01:59:04;20.35;;;10.25;;
22715;SDS011;11525;51.152;4.456;2024-03-23T02:01:30;33.53;;;12.25;;
22715;SDS011;11525;51.152;4.456;2024-03-23T02:03:57;34.95;;;11.40;;
22715;SDS011;11525;51.152;4.456;2024-03-23T02:06:23;25.30;;;11.63;;
22715;SDS011;11525;51.152;4.456;2024-03-23T02:08:49;30.48;;;13.13;;
22715;SDS011;11525;51.152;4.456;2024-03-23T02:11:15;39.15;;;12.15;;
22715;SDS011;11525;51.152;4.456;2024-03-23T02:13:41;29.77;;;13.93;;
22715;SDS011;11525;51.152;4.456;2024-03-23T02:16:06;33.47;;;12.68;;
22715;SDS011;11525;51.152;4.456;2024-03-23T02:18:32;28.27;;;13.32;;
22715;SDS011;11525;51.152;4.456;2024-03-23T02:20:58;31.70;;;13.45;;
22715;SDS011;11525;51.152;4.456;2024-03-23T02:23:24;37.15;;;13.98;;
22715;SDS011;11525;51.152;4.456;2024-03-23T02:25:50;37.03;;;15.30;;
22715;SDS011;11525;51.152;4.456;2024-03-23T02:28:16;31.48;;;13.18;;
22715;SDS011;11525;51.152;4.456;2024-03-23T02:30:42;33.55;;;16.17;;
22715;SDS011;11525;51.152;4.456;2024-03-23T02:33:08;30.48;;;15.45;;
22715;SDS011;11525;51.152;4.456;2024-03-23T02:35:33;39.03;;;15.00;;
22715;SDS011;11525;51.152;4.456;2024-03-23T02:37:59;35.75;;;15.02;;
22715;SDS011;11525;51.152;4.456;2024-03-23T02:40:25;33.25;;;15.95;;
22715;SDS011;11525;51.152;4.456;2024-03-23T02:42:51;36.10;;;14.73;;
22715;SDS011;11525;51.152;4.456;2024-03-23T02:45:17;38.70;;;16.83;;
22715;SDS011;11525;51.152;4.456;2024-03-23T02:47:43;39.17;;;17.67;;
22715;SDS011;11525;51.152;4.456;2024-03-23T02:50:08;36.75;;;14.88;;
22715;SDS011;11525;51.152;4.456;2024-03-23T02:52:34;27.63;;;14.93;;
22715;SDS011;11525;51.152;4.456;2024-03-23T02:55:01;44.00;;;16.50;;
22715;SDS011;11525;51.152;4.456;2024-03-23T02:57:27;42.63;;;15.40;;
22715;SDS011;11525;51.152;4.456;2024-03-23T02:59:53;44.05;;;17.13;;
22715;SDS011;11525;51.152;4.456;2024-03-23T03:02:19;35.10;;;14.63;;
22715;SDS011;11525;51.152;4.456;2024-03-23T03:04:46;37.00;;;15.35;;
22715;SDS011;11525;51.152;4.456;2024-03-23T03:07:11;38.17;;;15.18;;
22715;SDS011;11525;51.152;4.456;2024-03-23T03:09:37;34.67;;;13.38;;
22715;SDS011;11525;51.152;4.456;2024-03-23T03:12:04;40.22;;;13.90;;
22715;SDS011;11525;51.152;4.456;2024-03-23T03:14:33;34.60;;;13.30;;
22715;SDS011;11525;51.152;4.456;2024-03-23T03:16:59;28.77;;;14.30;;
22715;SDS011;11525;51.152;4.456;2024-03-23T03:19:25;27.42;;;12.93;;
22715;SDS011;11525;51.152;4.456;2024-03-23T03:21:51;31.27;;;13.38;;
22715;SDS011;11525;51.152;4.456;2024-03-23T03:24:16;35.13;;;13.50;;
22715;SDS011;11525;51.152;4.456;2024-03-23T03:26:42;37.38;;;14.13;;
22715;SDS011;11525;51.152;4.456;2024-03-23T03:29:08;42.92;;;15.75;;
22715;SDS011;11525;51.152;4.456;2024-03-23T03:31:34;34.40;;;12.90;;
22715;SDS011;11525;51.152;4.456;2024-03-23T03:33:59;30.38;;;13.13;;
22715;SDS011;11525;51.152;4.456;2024-03-23T03:36:25;35.08;;;12.73;;
22715;SDS011;11525;51.152;4.456;2024-03-23T03:38:51;27.95;;;12.68;;
22715;SDS011;11525;51.152;4.456;2024-03-23T03:41:17;33.55;;;12.45;;
22715;SDS011;11525;51.152;4.456;2024-03-23T03:43:43;35.25;;;13.80;;
22715;SDS011;11525;51.152;4.456;2024-03-23T03:46:09;31.73;;;12.95;;
22715;SDS011;11525;51.152;4.456;2024-03-23T03:48:36;30.15;;;12.77;;
22715;SDS011;11525;51.152;4.456;2024-03-23T03:51:02;27.00;;;10.82;;
22715;SDS011;11525;51.152;4.456;2024-03-23T03:53:28;33.38;;;12.70;;
22715;SDS011;11525;51.152;4.456;2024-03-23T03:55:53;36.40;;;12.23;;
22715;SDS011;11525;51.152;4.456;2024-03-23T03:58:19;43.55;;;13.98;;
22715;SDS011;11525;51.152;4.456;2024-03-23T04:00:45;33.25;;;12.85;;
22715;SDS011;11525;51.152;4.456;2024-03-23T04:03:10;30.15;;;12.00;;
22715;SDS011;11525;51.152;4.456;2024-03-23T04:05:36;35.97;;;13.13;;
22715;SDS011;11525;51.152;4.456;2024-03-23T04:08:02;32.40;;;13.18;;
22715;SDS011;11525;51.152;4.456;2024-03-23T04:10:29;30.45;;;11.82;;
22715;SDS011;11525;51.152;4.456;2024-03-23T04:12:55;30.98;;;12.15;;
22715;SDS011;11525;51.152;4.456;2024-03-23T04:15:21;30.33;;;11.95;;
22715;SDS011;11525;51.152;4.456;2024-03-23T04:17:46;31.02;;;11.55;;
22715;SDS011;11525;51.152;4.456;2024-03-23T04:20:12;32.97;;;12.23;;
22715;SDS011;11525;51.152;4.456;2024-03-23T04:22:41;25.25;;;10.73;;
22715;SDS011;11525;51.152;4.456;2024-03-23T04:25:07;30.85;;;10.35;;
22715;SDS011;11525;51.152;4.456;2024-03-23T04:27:34;24.13;;;9.98;;
22715;SDS011;11525;51.152;4.456;2024-03-23T04:30:01;24.30;;;9.40;;
22715;SDS011;11525;51.152;4.456;2024-03-23T04:32:28;29.00;;;10.05;;
22715;SDS011;11525;51.152;4.456;2024-03-23T04:34:54;24.20;;;9.40;;
22715;SDS011;11525;51.152;4.456;2024-03-23T04:37:20;25.33;;;9.27;;
22715;SDS011;11525;51.152;4.456;2024-03-23T04:39:46;20.23;;;8.23;;
22715;SDS011;11525;51.152;4.456;2024-03-23T04:42:14;29.70;;;9.65;;
22715;SDS011;11525;51.152;4.456;2024-03-23T04:44:42;29.30;;;9.90;;
22715;SDS011;11525;51.152;4.456;2024-03-23T04:47:09;22.58;;;9.27;;
22715;SDS011;11525;51.152;4.456;2024-03-23T04:49:34;31.60;;;9.38;;
22715;SDS011;11525;51.152;4.456;2024-03-23T04:52:02;26.00;;;9.70;;
22715;SDS011;11525;51.152;4.456;2024-03-23T04:54:29;23.33;;;8.65;;
22715;SDS011;11525;51.152;4.456;2024-03-23T04:56:54;21.70;;;9.38;;
22715;SDS011;11525;51.152;4.456;2024-03-23T04:59:21;21.85;;;8.98;;
22715;SDS011;11525;51.152;4.456;2024-03-23T05:01:46;29.58;;;9.50;;
22715;SDS011;11525;51.152;4.456;2024-03-23T05:04:12;25.60;;;9.80;;
22715;SDS011;11525;51.152;4.456;2024-03-23T05:06:38;35.97;;;10.85;;
22715;SDS011;11525;51.152;4.456;2024-03-23T05:09:03;29.10;;;11.18;;
22715;SDS011;11525;51.152;4.456;2024-03-23T05:11:33;31.00;;;12.15;;
22715;SDS011;11525;51.152;4.456;2024-03-23T05:13:59;25.95;;;11.55;;
22715;SDS011;11525;51.152;4.456;2024-03-23T05:16:25;28.45;;;11.70;;
22715;SDS011;11525;51.152;4.456;2024-03-23T05:18:51;24.15;;;11.25;;
22715;SDS011;11525;51.152;4.456;2024-03-23T05:21:17;33.30;;;14.10;;
22715;SDS011;11525;51.152;4.456;2024-03-23T05:23:42;35.75;;;14.40;;
22715;SDS011;11525;51.152;4.456;2024-03-23T05:26:09;36.03;;;13.02;;
22715;SDS011;11525;51.152;4.456;2024-03-23T05:28:35;37.40;;;14.55;;
22715;SDS011;11525;51.152;4.456;2024-03-23T05:31:00;31.55;;;14.63;;
22715;SDS011;11525;51.152;4.456;2024-03-23T05:33:26;40.40;;;13.43;;
22715;SDS011;11525;51.152;4.456;2024-03-23T05:35:58;36.67;;;14.13;;
22715;SDS011;11525;51.152;4.456;2024-03-23T05:38:25;35.13;;;13.20;;
22715;SDS011;11525;51.152;4.456;2024-03-23T05:40:58;37.67;;;13.40;;
22715;SDS011;11525;51.152;4.456;2024-03-23T05:43:25;31.88;;;13.98;;
22715;SDS011;11525;51.152;4.456;2024-03-23T05:48:24;31.75;;;13.00;;
22715;SDS011;11525;51.152;4.456;2024-03-23T05:50:51;34.40;;;12.43;;
22715;SDS011;11525;51.152;4.456;2024-03-23T05:53:17;26.60;;;12.80;;
22715;SDS011;11525;51.152;4.456;2024-03-23T05:55:45;28.30;;;11.02;;
22715;SDS011;11525;51.152;4.456;2024-03-23T05:58:12;27.17;;;10.98;;
22715;SDS011;11525;51.152;4.456;2024-03-23T06:00:39;21.25;;;9.10;;
22715;SDS011;11525;51.152;4.456;2024-03-23T06:03:05;22.55;;;9.23;;
22715;SDS011;11525;51.152;4.456;2024-03-23T06:05:31;25.65;;;9.48;;
22715;SDS011;11525;51.152;4.456;2024-03-23T06:07:56;23.98;;;9.15;;
22715;SDS011;11525;51.152;4.456;2024-03-23T06:10:22;27.98;;;8.80;;
22715;SDS011;11525;51.152;4.456;2024-03-23T06:12:48;26.15;;;8.07;;
22715;SDS011;11525;51.152;4.456;2024-03-23T06:15:15;27.83;;;6.63;;
22715;SDS011;11525;51.152;4.456;2024-03-23T06:17:41;25.50;;;7.68;;
22715;SDS011;11525;51.152;4.456;2024-03-23T06:20:06;21.48;;;7.05;;
22715;SDS011;11525;51.152;4.456;2024-03-23T06:22:32;23.63;;;6.68;;
22715;SDS011;11525;51.152;4.456;2024-03-23T06:24:58;23.85;;;6.20;;
22715;SDS011;11525;51.152;4.456;2024-03-23T06:27:24;16.67;;;5.97;;
22715;SDS011;11525;51.152;4.456;2024-03-23T06:29:50;20.98;;;6.50;;
22715;SDS011;11525;51.152;4.456;2024-03-23T06:32:15;17.65;;;6.35;;
22715;SDS011;11525;51.152;4.456;2024-03-23T06:34:41;19.48;;;6.30;;
22715;SDS011;11525;51.152;4.456;2024-03-23T06:37:07;24.45;;;5.82;;
22715;SDS011;11525;51.152;4.456;2024-03-23T06:39:34;21.92;;;6.35;;
22715;SDS011;11525;51.152;4.456;2024-03-23T06:42:00;16.10;;;5.70;;
22715;SDS011;11525;51.152;4.456;2024-03-23T06:44:26;21.85;;;6.00;;
22715;SDS011;11525;51.152;4.456;2024-03-23T06:46:52;16.67;;;5.50;;
22715;SDS011;11525;51.152;4.456;2024-03-23T06:49:17;13.50;;;5.28;;
22715;SDS011;11525;51.152;4.456;2024-03-23T06:51:44;18.65;;;5.72;;
22715;SDS011;11525;51.152;4.456;2024-03-23T06:54:10;18.67;;;5.90;;
22715;SDS011;11525;51.152;4.456;2024-03-23T06:56:36;15.40;;;5.75;;
22715;SDS011;11525;51.152;4.456;2024-03-23T06:59:01;20.83;;;5.63;;
22715;SDS011;11525;51.152;4.456;2024-03-23T07:01:27;16.63;;;5.85;;
22715;SDS011;11525;51.152;4.456;2024-03-23T07:03:54;15.23;;;5.60;;
22715;SDS011;11525;51.152;4.456;2024-03-23T07:06:20;13.88;;;5.97;;
22715;SDS011;11525;51.152;4.456;2024-03-23T07:08:45;15.45;;;5.68;;
22715;SDS011;11525;51.152;4.456;2024-03-23T07:11:11;12.50;;;4.82;;
22715;SDS011;11525;51.152;4.456;2024-03-23T07:13:36;15.13;;;4.75;;
22715;SDS011;11525;51.152;4.456;2024-03-23T07:16:02;12.15;;;4.60;;
22715;SDS011;11525;51.152;4.456;2024-03-23T07:18:28;10.25;;;3.90;;
22715;SDS011;11525;51.152;4.456;2024-03-23T07:20:57;16.65;;;4.40;;
22715;SDS011;11525;51.152;4.456;2024-03-23T07:23:23;13.77;;;3.90;;
22715;SDS011;11525;51.152;4.456;2024-03-23T07:25:59;10.93;;;3.63;;
22715;SDS011;11525;51.152;4.456;2024-03-23T07:28:26;10.82;;;3.80;;
22715;SDS011;11525;51.152;4.456;2024-03-23T07:33:36;13.18;;;4.80;;
22715;SDS011;11525;51.152;4.456;2024-03-23T07:36:03;12.25;;;3.97;;
22715;SDS011;11525;51.152;4.456;2024-03-23T07:38:29;13.75;;;4.10;;
22715;SDS011;11525;51.152;4.456;2024-03-23T07:43:33;16.58;;;4.93;;
22715;SDS011;11525;51.152;4.456;2024-03-23T07:45:59;12.85;;;3.67;;
22715;SDS011;11525;51.152;4.456;2024-03-23T07:48:26;13.27;;;4.55;;
22715;SDS011;11525;51.152;4.456;2024-03-23T07:51:08;11.55;;;4.03;;
22715;SDS011;11525;51.152;4.456;2024-03-23T07:53:36;15.68;;;4.10;;
22715;SDS011;11525;51.152;4.456;2024-03-23T07:56:06;14.93;;;4.57;;
22715;SDS011;11525;51.152;4.456;2024-03-23T07:58:33;13.35;;;3.85;;
22715;SDS011;11525;51.152;4.456;2024-03-23T08:01:03;15.10;;;4.35;;
22715;SDS011;11525;51.152;4.456;2024-03-23T08:03:49;7.68;;;3.80;;
22715;SDS011;11525;51.152;4.456;2024-03-23T08:06:18;10.68;;;3.47;;
22715;SDS011;11525;51.152;4.456;2024-03-23T08:08:47;14.82;;;4.30;;
22715;SDS011;11525;51.152;4.456;2024-03-23T08:11:14;14.23;;;4.20;;
22715;SDS011;11525;51.152;4.456;2024-03-23T08:13:40;12.10;;;3.60;;
22715;SDS011;11525;51.152;4.456;2024-03-23T08:16:07;13.98;;;4.15;;
22715;SDS011;11525;51.152;4.456;2024-03-23T08:18:33;10.13;;;3.70;;
22715;SDS011;11525;51.152;4.456;2024-03-23T08:21:00;10.65;;;3.85;;
22715;SDS011;11525;51.152;4.456;2024-03-23T08:23:27;16.27;;;4.82;;
22715;SDS011;11525;51.152;4.456;2024-03-23T08:25:57;13.40;;;4.22;;
22715;SDS011;11525;51.152;4.456;2024-03-23T08:28:23;10.60;;;3.92;;
22715;SDS011;11525;51.152;4.456;2024-03-23T08:30:49;15.80;;;4.55;;
22715;SDS011;11525;51.152;4.456;2024-03-23T08:33:15;14.43;;;4.25;;
22715;SDS011;11525;51.152;4.456;2024-03-23T08:35:41;10.77;;;4.32;;
22715;SDS011;11525;51.152;4.456;2024-03-23T08:38:07;10.05;;;3.75;;
22715;SDS011;11525;51.152;4.456;2024-03-23T08:40:32;10.55;;;3.90;;
22715;SDS011;11525;51.152;4.456;2024-03-23T08:42:58;12.02;;;4.00;;
22715;SDS011;11525;51.152;4.456;2024-03-23T08:45:24;12.00;;;3.72;;
22715;SDS011;11525;51.152;4.456;2024-03-23T08:47:50;11.77;;;3.60;;
22715;SDS011;11525;51.152;4.456;2024-03-23T08:50:16;12.60;;;4.22;;
22715;SDS011;11525;51.152;4.456;2024-03-23T08:52:42;10.35;;;4.15;;
22715;SDS011;11525;51.152;4.456;2024-03-23T08:55:08;15.60;;;4.25;;
22715;SDS011;11525;51.152;4.456;2024-03-23T08:57:34;7.00;;;3.97;;
22715;SDS011;11525;51.152;4.456;2024-03-23T09:00:01;9.75;;;3.90;;
22715;SDS011;11525;51.152;4.456;2024-03-23T09:02:27;9.68;;;4.68;;
22715;SDS011;11525;51.152;4.456;2024-03-23T09:04:53;12.90;;;4.55;;
22715;SDS011;11525;51.152;4.456;2024-03-23T09:07:18;10.10;;;4.13;;
22715;SDS011;11525;51.152;4.456;2024-03-23T09:09:44;11.82;;;4.28;;
22715;SDS011;11525;51.152;4.456;2024-03-23T09:12:09;11.63;;;3.78;;
22715;SDS011;11525;51.152;4.456;2024-03-23T09:14:35;15.23;;;4.85;;
22715;SDS011;11525;51.152;4.456;2024-03-23T09:17:01;14.15;;;5.00;;
22715;SDS011;11525;51.152;4.456;2024-03-23T09:19:27;13.63;;;5.47;;
22715;SDS011;11525;51.152;4.456;2024-03-23T09:21:54;14.02;;;4.70;;
22715;SDS011;11525;51.152;4.456;2024-03-23T09:24:20;9.40;;;4.32;;
22715;SDS011;11525;51.152;4.456;2024-03-23T09:26:46;12.68;;;4.30;;
22715;SDS011;11525;51.152;4.456;2024-03-23T09:29:11;13.05;;;4.05;;
22715;SDS011;11525;51.152;4.456;2024-03-23T09:31:40;14.75;;;4.75;;
22715;SDS011;11525;51.152;4.456;2024-03-23T09:34:06;12.00;;;3.80;;
22715;SDS011;11525;51.152;4.456;2024-03-23T09:36:31;11.18;;;3.75;;
22715;SDS011;11525;51.152;4.456;2024-03-23T09:38:57;9.32;;;3.05;;
22715;SDS011;11525;51.152;4.456;2024-03-23T09:41:23;7.18;;;2.42;;
22715;SDS011;11525;51.152;4.456;2024-03-23T09:43:51;3.65;;;2.33;;
22715;SDS011;11525;51.152;4.456;2024-03-23T09:46:18;6.90;;;3.15;;
22715;SDS011;11525;51.152;4.456;2024-03-23T09:48:44;8.68;;;3.25;;
22715;SDS011;11525;51.152;4.456;2024-03-23T09:51:11;8.48;;;3.33;;
22715;SDS011;11525;51.152;4.456;2024-03-23T09:53:37;8.02;;;3.33;;
22715;SDS011;11525;51.152;4.456;2024-03-23T09:56:03;9.73;;;3.55;;
22715;SDS011;11525;51.152;4.456;2024-03-23T09:58:29;5.57;;;2.67;;
22715;SDS011;11525;51.152;4.456;2024-03-23T10:00:57;6.50;;;3.47;;
22715;SDS011;11525;51.152;4.456;2024-03-23T10:03:23;11.73;;;2.85;;
22715;SDS011;11525;51.152;4.456;2024-03-23T10:05:59;8.20;;;2.92;;
22715;SDS011;11525;51.152;4.456;2024-03-23T10:08:29;5.55;;;2.50;;
22715;SDS011;11525;51.152;4.456;2024-03-23T10:10:56;6.88;;;2.20;;
22715;SDS011;11525;51.152;4.456;2024-03-23T10:13:25;6.28;;;2.20;;
22715;SDS011;11525;51.152;4.456;2024-03-23T10:15:58;7.70;;;2.58;;
22715;SDS011;11525;51.152;4.456;2024-03-23T10:18:24;7.85;;;2.95;;
22715;SDS011;11525;51.152;4.456;2024-03-23T10:23:32;7.93;;;3.13;;
22715;SDS011;11525;51.152;4.456;2024-03-23T10:26:14;10.90;;;4.10;;
22715;SDS011;11525;51.152;4.456;2024-03-23T10:28:53;10.95;;;3.55;;
22715;SDS011;11525;51.152;4.456;2024-03-23T10:31:23;11.43;;;3.25;;
22715;SDS011;11525;51.152;4.456;2024-03-23T10:33:49;7.50;;;3.42;;
22715;SDS011;11525;51.152;4.456;2024-03-23T10:36:15;6.10;;;2.30;;
22715;SDS011;11525;51.152;4.456;2024-03-23T10:38:41;4.45;;;2.53;;
22715;SDS011;11525;51.152;4.456;2024-03-23T10:41:10;4.80;;;1.85;;
22715;SDS011;11525;51.152;4.456;2024-03-23T10:43:37;6.22;;;2.60;;
22715;SDS011;11525;51.152;4.456;2024-03-23T10:46:03;5.43;;;2.15;;
22715;SDS011;11525;51.152;4.456;2024-03-23T10:48:29;7.30;;;2.20;;
22715;SDS011;11525;51.152;4.456;2024-03-23T10:50:56;7.45;;;2.40;;
22715;SDS011;11525;51.152;4.456;2024-03-23T10:53:22;4.40;;;2.20;;
22715;SDS011;11525;51.152;4.456;2024-03-23T10:55:51;6.28;;;2.58;;
22715;SDS011;11525;51.152;4.456;2024-03-23T10:58:18;5.20;;;2.55;;
22715;SDS011;11525;51.152;4.456;2024-03-23T11:00:46;9.43;;;3.42;;
22715;SDS011;11525;51.152;4.456;2024-03-23T11:03:31;8.10;;;3.00;;
22715;SDS011;11525;51.152;4.456;2024-03-23T11:06:02;6.90;;;3.33;;
22715;SDS011;11525;51.152;4.456;2024-03-23T11:08:31;7.93;;;3.28;;
22715;SDS011;11525;51.152;4.456;2024-03-23T11:11:17;7.45;;;2.88;;
22715;SDS011;11525;51.152;4.456;2024-03-23T11:13:53;5.88;;;3.65;;
22715;SDS011;11525;51.152;4.456;2024-03-23T11:16:23;9.88;;;3.53;;
22715;SDS011;11525;51.152;4.456;2024-03-23T11:18:52;12.55;;;3.42;;
22715;SDS011;11525;51.152;4.456;2024-03-23T11:24:19;11.80;;;3.53;;
22715;SDS011;11525;51.152;4.456;2024-03-23T11:26:46;9.80;;;2.80;;
22715;SDS011;11525;51.152;4.456;2024-03-23T11:29:13;10.13;;;2.90;;
22715;SDS011;11525;51.152;4.456;2024-03-23T11:31:49;11.13;;;3.30;;
22715;SDS011;11525;51.152;4.456;2024-03-23T11:34:16;8.10;;;3.28;;
22715;SDS011;11525;51.152;4.456;2024-03-23T11:36:42;7.47;;;2.97;;
22715;SDS011;11525;51.152;4.456;2024-03-23T11:41:51;11.27;;;3.38;;
22715;SDS011;11525;51.152;4.456;2024-03-23T11:46:49;12.20;;;3.90;;
22715;SDS011;11525;51.152;4.456;2024-03-23T11:49:25;9.40;;;4.15;;
22715;SDS011;11525;51.152;4.456;2024-03-23T11:51:52;10.50;;;4.78;;
22715;SDS011;11525;51.152;4.456;2024-03-23T11:54:24;8.35;;;4.20;;
22715;SDS011;11525;51.152;4.456;2024-03-23T11:56:57;8.70;;;4.47;;
22715;SDS011;11525;51.152;4.456;2024-03-23T11:59:37;10.07;;;4.10;;
22715;SDS011;11525;51.152;4.456;2024-03-23T12:02:11;5.03;;;2.97;;
22715;SDS011;11525;51.152;4.456;2024-03-23T12:04:41;4.93;;;3.40;;
22715;SDS011;11525;51.152;4.456;2024-03-23T12:07:17;6.82;;;3.10;;
22715;SDS011;11525;51.152;4.456;2024-03-23T12:09:44;9.25;;;3.22;;
22715;SDS011;11525;51.152;4.456;2024-03-23T12:12:14;4.55;;;3.42;;
22715;SDS011;11525;51.152;4.456;2024-03-23T12:14:43;6.97;;;3.58;;
22715;SDS011;11525;51.152;4.456;2024-03-23T12:19:39;11.00;;;4.45;;
22715;SDS011;11525;51.152;4.456;2024-03-23T12:22:06;16.50;;;4.57;;
22715;SDS011;11525;51.152;4.456;2024-03-23T12:24:33;6.32;;;4.18;;
22715;SDS011;11525;51.152;4.456;2024-03-23T12:27:03;11.25;;;4.55;;
22715;SDS011;11525;51.152;4.456;2024-03-23T12:29:32;8.23;;;3.85;;
22715;SDS011;11525;51.152;4.456;2024-03-23T12:32:01;7.78;;;3.83;;
22715;SDS011;11525;51.152;4.456;2024-03-23T12:34:27;8.73;;;4.00;;
22715;SDS011;11525;51.152;4.456;2024-03-23T12:36:55;8.68;;;4.20;;
22715;SDS011;11525;51.152;4.456;2024-03-23T12:39:21;11.07;;;4.38;;
22715;SDS011;11525;51.152;4.456;2024-03-23T12:41:47;5.75;;;3.63;;
22715;SDS011;11525;51.152;4.456;2024-03-23T12:44:13;8.13;;;3.97;;
22715;SDS011;11525;51.152;4.456;2024-03-23T12:46:40;9.20;;;4.18;;
22715;SDS011;11525;51.152;4.456;2024-03-23T12:49:09;11.00;;;4.53;;
22715;SDS011;11525;51.152;4.456;2024-03-23T12:51:35;9.73;;;4.03;;
22715;SDS011;11525;51.152;4.456;2024-03-23T12:54:01;12.65;;;4.30;;
22715;SDS011;11525;51.152;4.456;2024-03-23T12:56:27;10.48;;;3.90;;
22715;SDS011;11525;51.152;4.456;2024-03-23T12:58:53;11.30;;;3.55;;
22715;SDS011;11525;51.152;4.456;2024-03-23T13:01:25;6.68;;;2.85;;
22715;SDS011;11525;51.152;4.456;2024-03-23T13:03:51;8.68;;;2.85;;
22715;SDS011;11525;51.152;4.456;2024-03-23T13:06:17;10.55;;;3.83;;
22715;SDS011;11525;51.152;4.456;2024-03-23T13:08:44;12.27;;;3.28;;
22715;SDS011;11525;51.152;4.456;2024-03-23T13:11:11;13.70;;;3.70;;
22715;SDS011;11525;51.152;4.456;2024-03-23T13:13:38;8.63;;;2.50;;
22715;SDS011;11525;51.152;4.456;2024-03-23T13:16:04;10.75;;;3.13;;
22715;SDS011;11525;51.152;4.456;2024-03-23T13:18:30;10.50;;;3.20;;
22715;SDS011;11525;51.152;4.456;2024-03-23T13:20:56;9.75;;;3.35;;
22715;SDS011;11525;51.152;4.456;2024-03-23T13:23:22;7.07;;;3.17;;
22715;SDS011;11525;51.152;4.456;2024-03-23T13:25:51;6.90;;;3.72;;
22715;SDS011;11525;51.152;4.456;2024-03-23T13:28:18;10.13;;;3.30;;
22715;SDS011;11525;51.152;4.456;2024-03-23T13:30:54;8.13;;;3.20;;
22715;SDS011;11525;51.152;4.456;2024-03-23T13:33:22;7.93;;;2.75;;
22715;SDS011;11525;51.152;4.456;2024-03-23T13:35:51;5.18;;;2.60;;
22715;SDS011;11525;51.152;4.456;2024-03-23T13:38:19;4.63;;;2.35;;
22715;SDS011;11525;51.152;4.456;2024-03-23T13:43:21;4.50;;;2.33;;
22715;SDS011;11525;51.152;4.456;2024-03-23T13:45:48;5.85;;;2.55;;
22715;SDS011;11525;51.152;4.456;2024-03-23T13:48:16;3.28;;;2.13;;
22715;SDS011;11525;51.152;4.456;2024-03-23T13:50:43;4.07;;;2.10;;
22715;SDS011;11525;51.152;4.456;2024-03-23T13:53:08;3.00;;;1.80;;
22715;SDS011;11525;51.152;4.456;2024-03-23T13:55:34;2.70;;;2.30;;
22715;SDS011;11525;51.152;4.456;2024-03-23T13:58:00;3.67;;;2.08;;
22715;SDS011;11525;51.152;4.456;2024-03-23T14:00:26;1.98;;;1.75;;
22715;SDS011;11525;51.152;4.456;2024-03-23T14:02:52;3.85;;;2.15;;
22715;SDS011;11525;51.152;4.456;2024-03-23T14:05:17;3.95;;;1.70;;
22715;SDS011;11525;51.152;4.456;2024-03-23T14:07:43;4.28;;;2.40;;
22715;SDS011;11525;51.152;4.456;2024-03-23T14:10:09;2.92;;;1.70;;
22715;SDS011;11525;51.152;4.456;2024-03-23T14:12:38;2.88;;;1.65;;
22715;SDS011;11525;51.152;4.456;2024-03-23T14:15:07;2.53;;;1.95;;
22715;SDS011;11525;51.152;4.456;2024-03-23T14:17:33;6.30;;;1.98;;
22715;SDS011;11525;51.152;4.456;2024-03-23T14:19:59;2.97;;;1.80;;
22715;SDS011;11525;51.152;4.456;2024-03-23T14:22:30;4.47;;;2.00;;
22715;SDS011;11525;51.152;4.456;2024-03-23T14:24:57;3.33;;;2.15;;
22715;SDS011;11525;51.152;4.456;2024-03-23T14:27:23;4.63;;;1.70;;
22715;SDS011;11525;51.152;4.456;2024-03-23T14:29:49;4.38;;;2.38;;
22715;SDS011;11525;51.152;4.456;2024-03-23T14:32:15;5.57;;;3.05;;
22715;SDS011;11525;51.152;4.456;2024-03-23T14:34:41;6.53;;;2.33;;
22715;SDS011;11525;51.152;4.456;2024-03-23T14:37:06;9.45;;;2.35;;
22715;SDS011;11525;51.152;4.456;2024-03-23T14:39:32;5.88;;;3.10;;
22715;SDS011;11525;51.152;4.456;2024-03-23T14:42:04;7.55;;;3.17;;
22715;SDS011;11525;51.152;4.456;2024-03-23T14:44:31;5.82;;;2.95;;
22715;SDS011;11525;51.152;4.456;2024-03-23T14:46:57;6.75;;;2.85;;
22715;SDS011;11525;51.152;4.456;2024-03-23T14:49:22;6.38;;;2.60;;
22715;SDS011;11525;51.152;4.456;2024-03-23T14:51:48;8.52;;;2.70;;
22715;SDS011;11525;51.152;4.456;2024-03-23T14:54:15;9.48;;;3.45;;
22715;SDS011;11525;51.152;4.456;2024-03-23T14:56:40;7.93;;;2.90;;
22715;SDS011;11525;51.152;4.456;2024-03-23T14:59:06;7.75;;;2.83;;
22715;SDS011;11525;51.152;4.456;2024-03-23T15:01:32;4.57;;;2.20;;
22715;SDS011;11525;51.152;4.456;2024-03-23T15:03:59;7.35;;;2.45;;
22715;SDS011;11525;51.152;4.456;2024-03-23T15:06:25;7.55;;;2.58;;
22715;SDS011;11525;51.152;4.456;2024-03-23T15:08:50;5.35;;;1.85;;
22715;SDS011;11525;51.152;4.456;2024-03-23T15:11:16;4.70;;;2.45;;
22715;SDS011;11525;51.152;4.456;2024-03-23T15:13:44;6.93;;;2.33;;
22715;SDS011;11525;51.152;4.456;2024-03-23T15:16:11;6.22;;;2.50;;
22715;SDS011;11525;51.152;4.456;2024-03-23T15:18:41;5.38;;;2.50;;
22715;SDS011;11525;51.152;4.456;2024-03-23T15:21:06;7.10;;;2.65;;
22715;SDS011;11525;51.152;4.456;2024-03-23T15:23:36;6.93;;;2.45;;
22715;SDS011;11525;51.152;4.456;2024-03-23T15:26:02;5.22;;;2.40;;
22715;SDS011;11525;51.152;4.456;2024-03-23T15:28:29;5.18;;;2.42;;
22715;SDS011;11525;51.152;4.456;2024-03-23T15:31:14;6.75;;;2.58;;
22715;SDS011;11525;51.152;4.456;2024-03-23T15:33:39;5.63;;;2.33;;
22715;SDS011;11525;51.152;4.456;2024-03-23T15:36:05;6.65;;;2.85;;
22715;SDS011;11525;51.152;4.456;2024-03-23T15:38:31;7.00;;;2.47;;
22715;SDS011;11525;51.152;4.456;2024-03-23T15:40:57;6.47;;;2.65;;
22715;SDS011;11525;51.152;4.456;2024-03-23T15:43:23;8.05;;;2.50;;
22715;SDS011;11525;51.152;4.456;2024-03-23T15:45:59;7.13;;;2.50;;
22715;SDS011;11525;51.152;4.456;2024-03-23T15:48:26;5.93;;;2.17;;
22715;SDS011;11525;51.152;4.456;2024-03-23T15:50:53;4.07;;;2.35;;
22715;SDS011;11525;51.152;4.456;2024-03-23T15:53:19;3.72;;;2.38;;